createdAt,value
2019-05-28T00:01:51.575Z,39.07
2019-05-28T00:04:22.992Z,36.47
2019-05-28T00:06:53.930Z,41.80
2019-05-28T00:09:25.591Z,44.13
2019-05-28T00:11:57.074Z,50.33
2019-05-28T00:14:28.095Z,45.97
2019-05-28T00:16:59.430Z,44.23
2019-05-28T00:19:30.590Z,45.40
2019-05-28T00:22:01.971Z,40.40
2019-05-28T00:24:33.626Z,41.50
2019-05-28T00:27:04.854Z,43.10
2019-05-28T00:29:35.830Z,45.53
2019-05-28T00:32:07.278Z,47.80
2019-05-28T00:34:38.630Z,46.53
2019-05-28T00:37:09.743Z,48.30
2019-05-28T00:39:41.475Z,43.37
2019-05-28T00:42:12.750Z,44.03
2019-05-28T00:44:44.214Z,44.07
2019-05-28T00:47:15.243Z,46.07
2019-05-28T00:49:49.625Z,44.77
2019-05-28T00:52:19.406Z,44.07
2019-05-28T00:54:51.042Z,43.80
2019-05-28T00:57:23.310Z,44.87
2019-05-28T00:59:55.159Z,43.23
2019-05-28T01:02:26.410Z,42.17
2019-05-28T01:04:58.068Z,45.13
2019-05-28T01:07:29.128Z,43.53
2019-05-28T01:10:00.424Z,46.17
2019-05-28T01:12:31.577Z,44.30
2019-05-28T01:15:02.646Z,45.93
2019-05-28T01:17:35.094Z,45.83
2019-05-28T01:20:07.264Z,45.40
2019-05-28T01:22:38.187Z,43.73
2019-05-28T01:25:09.572Z,48.30
2019-05-28T01:27:41.125Z,45.00
2019-05-28T01:30:12.466Z,43.90
2019-05-28T01:32:43.583Z,45.10
2019-05-28T01:35:14.954Z,44.90
2019-05-28T01:37:46.318Z,43.60
2019-05-28T01:40:18.386Z,35.47
2019-05-28T01:42:49.504Z,43.73
2019-05-28T01:45:21.376Z,41.87
2019-05-28T01:47:52.446Z,41.10
2019-05-28T01:50:23.405Z,45.57
2019-05-28T01:52:54.402Z,42.73
2019-05-28T01:55:25.606Z,42.83
2019-05-28T01:57:56.639Z,44.00
2019-05-28T02:00:28.164Z,43.27
2019-05-28T02:02:59.415Z,42.63
2019-05-28T02:05:30.339Z,42.10
2019-05-28T02:08:01.499Z,45.73
2019-05-28T02:10:32.598Z,45.23
2019-05-28T02:13:03.955Z,45.27
2019-05-28T02:15:35.099Z,44.53
2019-05-28T02:18:06.131Z,41.03
2019-05-28T02:20:37.550Z,39.80
2019-05-28T02:23:08.566Z,42.40
2019-05-28T02:25:39.519Z,39.47
2019-05-28T02:28:10.798Z,39.30
2019-05-28T02:30:41.855Z,40.20
2019-05-28T02:33:12.991Z,40.13
2019-05-28T02:35:44.354Z,40.10
2019-05-28T02:38:16.087Z,41.30
2019-05-28T02:40:47.216Z,40.80
2019-05-28T02:43:18.099Z,41.23
2019-05-28T02:45:49.154Z,43.57
2019-05-28T02:48:20.044Z,44.17
2019-05-28T02:50:59.994Z,42.07
2019-05-28T02:53:32.136Z,42.17
2019-05-28T02:56:03.183Z,42.77
2019-05-28T02:58:36.468Z,44.43
2019-05-28T03:01:10.663Z,41.67
2019-05-28T03:03:44.016Z,44.53
2019-05-28T03:06:15.889Z,42.67
2019-05-28T03:08:48.803Z,43.17
2019-05-28T03:11:19.935Z,40.73
2019-05-28T03:13:51.078Z,42.20
2019-05-28T03:16:25.815Z,39.57
2019-05-28T03:18:57.523Z,40.87
2019-05-28T03:21:29.976Z,40.00
2019-05-28T03:24:03.144Z,37.47
2019-05-28T03:26:34.263Z,37.33
2019-05-28T03:29:05.667Z,38.17
2019-05-28T03:31:36.705Z,36.77
2019-05-28T03:34:08.799Z,36.03
2019-05-28T03:36:40.827Z,37.87
2019-05-28T03:39:12.574Z,37.57
2019-05-28T03:41:43.811Z,36.97
2019-05-28T03:44:15.091Z,37.20
2019-05-28T03:46:46.551Z,36.47
2019-05-28T03:49:17.318Z,35.93
2019-05-28T03:51:48.460Z,36.43
2019-05-28T03:54:19.374Z,35.20
2019-05-28T03:56:50.437Z,35.43
2019-05-28T03:59:21.310Z,35.93
2019-05-28T04:01:52.143Z,36.60
2019-05-28T04:04:23.111Z,36.40
2019-05-28T04:06:54.642Z,36.40
2019-05-28T04:09:25.523Z,37.03
2019-05-28T04:11:56.635Z,36.90
2019-05-28T04:14:27.479Z,35.87
2019-05-28T04:16:58.503Z,35.23
2019-05-28T04:19:29.959Z,35.07
2019-05-28T04:22:02.413Z,34.83
2019-05-28T04:24:33.541Z,34.60
2019-05-28T04:27:04.911Z,36.13
2019-05-28T04:29:36.302Z,35.90
2019-05-28T04:32:07.370Z,36.80
2019-05-28T04:34:39.208Z,38.10
2019-05-28T04:37:10.323Z,39.27
2019-05-28T04:39:41.680Z,37.23
2019-05-28T04:42:12.671Z,38.57
2019-05-28T04:44:43.977Z,37.27
2019-05-28T04:47:15.935Z,36.70
2019-05-28T04:49:47.735Z,38.00
2019-05-28T04:52:19.515Z,37.90
2019-05-28T04:54:52.435Z,40.47
2019-05-28T04:57:27.583Z,39.50
2019-05-28T04:59:59.727Z,38.20
2019-05-28T05:02:30.708Z,38.53
2019-05-28T05:05:01.839Z,39.43
2019-05-28T05:07:32.895Z,37.60
2019-05-28T05:10:03.878Z,38.03
2019-05-28T05:12:35.425Z,37.30
2019-05-28T05:15:07.331Z,35.73
2019-05-28T05:17:38.692Z,38.27
2019-05-28T05:20:09.731Z,37.60
2019-05-28T05:22:40.723Z,37.80
2019-05-28T05:25:12.771Z,35.50
2019-05-28T05:27:43.614Z,34.97
2019-05-28T05:30:14.851Z,36.33
2019-05-28T05:32:45.987Z,36.83
2019-05-28T05:35:17.309Z,35.50
2019-05-28T05:37:48.327Z,34.90
2019-05-28T05:40:19.612Z,33.73
2019-05-28T05:42:50.762Z,34.10
2019-05-28T05:45:21.900Z,33.07
2019-05-28T05:47:52.823Z,33.13
2019-05-28T05:50:23.998Z,33.23
2019-05-28T05:52:54.986Z,31.37
2019-05-28T05:55:26.243Z,33.90
2019-05-28T05:57:57.162Z,33.43
2019-05-28T06:00:28.098Z,33.23
2019-05-28T06:02:59.596Z,35.00
2019-05-28T06:05:30.919Z,33.87
2019-05-28T06:08:03.119Z,34.70
2019-05-28T06:10:34.411Z,33.90
2019-05-28T06:13:06.578Z,33.20
2019-05-28T06:15:37.984Z,33.63
2019-05-28T06:18:09.048Z,34.53
2019-05-28T06:20:40.176Z,33.67
2019-05-28T06:23:11.192Z,33.00
2019-05-28T06:25:42.407Z,33.03
2019-05-28T06:28:13.331Z,32.87
2019-05-28T06:30:44.311Z,33.13
2019-05-28T06:33:15.311Z,32.50
2019-05-28T06:35:46.330Z,29.80
2019-05-28T06:38:17.281Z,30.57
2019-05-28T06:40:48.442Z,28.27
2019-05-28T06:43:19.841Z,29.60
2019-05-28T06:45:51.131Z,26.63
2019-05-28T06:48:22.749Z,25.40
2019-05-28T06:50:54.111Z,26.53
2019-05-28T06:53:24.931Z,25.37
2019-05-28T06:55:55.779Z,24.40
2019-05-28T06:58:38.763Z,21.80
2019-05-28T07:00:59.787Z,22.70
2019-05-28T07:03:30.962Z,21.60
2019-05-28T07:06:07.372Z,22.20
2019-05-28T07:08:34.843Z,19.40
2019-05-28T07:11:06.583Z,17.97
2019-05-28T07:13:37.956Z,17.27
2019-05-28T07:16:09.091Z,15.07
2019-05-28T07:18:40.240Z,14.80
2019-05-28T07:21:11.540Z,14.63
2019-05-28T07:23:42.743Z,13.80
2019-05-28T07:26:13.924Z,14.67
2019-05-28T07:28:44.983Z,12.93
2019-05-28T07:31:18.915Z,11.97
2019-05-28T07:33:50.316Z,12.00
2019-05-28T07:36:21.719Z,11.10
2019-05-28T07:38:53.166Z,10.67
2019-05-28T07:41:24.287Z,8.63
2019-05-28T07:43:55.468Z,8.97
2019-05-28T07:46:26.879Z,7.77
2019-05-28T07:48:58.323Z,8.03
2019-05-28T07:51:29.305Z,7.50
2019-05-28T07:54:00.099Z,7.37
2019-05-28T07:56:30.986Z,7.43
2019-05-28T07:59:02.171Z,7.10
2019-05-28T08:01:33.760Z,7.80
2019-05-28T08:04:05.135Z,7.23
2019-05-28T08:06:53.480Z,7.10
2019-05-28T08:09:09.903Z,7.27
2019-05-28T08:11:41.103Z,6.83
2019-05-28T08:14:12.841Z,7.57
2019-05-28T08:16:52.394Z,7.23
2019-05-28T08:19:16.896Z,6.60
2019-05-28T08:21:49.319Z,7.57
2019-05-28T08:24:22.873Z,6.90
2019-05-28T08:26:53.355Z,7.10
2019-05-28T08:29:24.555Z,6.90
2019-05-28T08:31:56.027Z,7.03
2019-05-28T08:34:27.548Z,6.63
2019-05-28T08:37:05.858Z,7.67
2019-05-28T08:39:33.490Z,7.33
2019-05-28T08:42:04.333Z,7.40
2019-05-28T08:44:35.623Z,7.03
2019-05-28T08:47:06.951Z,7.33
2019-05-28T08:49:37.918Z,7.13
2019-05-28T08:52:09.152Z,6.80
2019-05-28T08:54:40.228Z,6.60
2019-05-28T08:57:11.072Z,6.17
2019-05-28T08:59:42.417Z,6.10
2019-05-28T09:02:26.955Z,6.03
2019-05-28T09:04:46.410Z,5.40
2019-05-28T09:07:17.964Z,4.90
2019-05-28T09:09:48.865Z,4.97
2019-05-28T09:12:19.971Z,4.87
2019-05-28T09:14:55.668Z,4.70
2019-05-28T09:17:23.883Z,5.20
2019-05-28T09:19:54.915Z,4.63
2019-05-28T09:22:26.586Z,4.87
2019-05-28T09:24:58.352Z,4.50
2019-05-28T09:27:29.391Z,4.23
2019-05-28T09:30:00.407Z,4.30
2019-05-28T09:32:31.539Z,4.43
2019-05-28T09:35:03.029Z,4.63
2019-05-28T09:37:33.907Z,3.90
2019-05-28T09:40:04.943Z,4.30
2019-05-28T09:42:36.344Z,3.83
2019-05-28T09:45:22.032Z,4.00
2019-05-28T09:47:41.498Z,3.87
2019-05-28T09:50:29.175Z,3.60
2019-05-28T09:52:54.283Z,3.43
2019-05-28T09:55:20.037Z,3.20
2019-05-28T09:57:51.473Z,3.70
2019-05-28T10:00:23.920Z,3.90
2019-05-28T10:02:54.956Z,3.70
2019-05-28T10:05:26.182Z,4.17
2019-05-28T10:07:57.143Z,4.10
2019-05-28T10:10:28.703Z,3.77
2019-05-28T10:12:59.859Z,3.80
2019-05-28T10:15:30.889Z,3.50
2019-05-28T10:18:02.096Z,3.47
2019-05-28T10:20:37.592Z,3.23
2019-05-28T10:23:06.240Z,3.60
2019-05-28T10:25:37.328Z,3.20
2019-05-28T10:28:08.646Z,3.60
2019-05-28T10:30:39.827Z,3.03
2019-05-28T10:33:11.004Z,3.33
2019-05-28T10:35:42.323Z,2.93
2019-05-28T10:38:16.736Z,3.17
2019-05-28T10:40:46.435Z,3.00
2019-05-28T10:43:17.443Z,2.90
2019-05-28T10:45:48.356Z,2.70
2019-05-28T10:48:19.383Z,2.83
2019-05-28T10:50:50.777Z,3.10
2019-05-28T10:53:22.135Z,2.90
2019-05-28T10:55:53.234Z,2.80
2019-05-28T10:58:24.814Z,3.10
2019-05-28T11:00:55.778Z,3.33
2019-05-28T11:03:27.051Z,2.87
2019-05-28T11:05:59.837Z,2.50
2019-05-28T11:08:31.028Z,2.07
2019-05-28T11:11:02.228Z,2.00
2019-05-28T11:13:33.312Z,2.10
2019-05-28T11:16:05.966Z,2.90
2019-05-28T11:18:36.920Z,3.70
2019-05-28T11:21:09.818Z,4.17
2019-05-28T11:23:40.830Z,3.97
2019-05-28T11:26:12.384Z,3.70
2019-05-28T11:28:43.321Z,3.23
2019-05-28T11:31:14.521Z,3.33
2019-05-28T11:33:45.831Z,3.00
2019-05-28T11:36:16.715Z,3.23
2019-05-28T11:38:47.769Z,3.37
2019-05-28T11:41:18.783Z,4.07
2019-05-28T11:43:50.039Z,3.97
2019-05-28T11:46:21.167Z,3.87
2019-05-28T11:48:52.618Z,4.00
2019-05-28T11:51:24.155Z,3.70
2019-05-28T11:53:55.315Z,4.23
2019-05-28T11:56:26.707Z,3.70
2019-05-28T11:58:57.880Z,4.30
2019-05-28T12:01:34.634Z,3.93
2019-05-28T12:04:03.004Z,4.00
2019-05-28T12:06:38.061Z,4.10
2019-05-28T12:09:08.620Z,4.43
2019-05-28T12:11:39.765Z,3.50
2019-05-28T12:14:11.092Z,3.63
2019-05-28T12:16:42.538Z,3.90
2019-05-28T12:19:13.819Z,3.20
2019-05-28T12:21:46.456Z,3.37
2019-05-28T12:24:18.244Z,3.30
2019-05-28T12:26:49.077Z,3.33
2019-05-28T12:29:20.051Z,3.10
2019-05-28T12:31:51.436Z,3.00
2019-05-28T12:34:24.088Z,2.77
2019-05-28T12:36:55.231Z,2.60
2019-05-28T12:39:27.207Z,2.60
2019-05-28T12:42:03.041Z,2.57
2019-05-28T12:44:41.582Z,2.40
2019-05-28T12:47:04.654Z,2.33
2019-05-28T12:49:36.114Z,2.53
2019-05-28T12:52:07.580Z,2.70
2019-05-28T12:54:42.030Z,2.37
2019-05-28T12:57:15.039Z,2.40
2019-05-28T12:59:50.995Z,2.30
2019-05-28T13:02:22.463Z,2.40
2019-05-28T13:04:53.963Z,2.63
2019-05-28T13:07:25.055Z,2.77
2019-05-28T13:09:56.364Z,2.10
2019-05-28T13:12:27.260Z,2.80
2019-05-28T13:14:58.380Z,2.20
2019-05-28T13:17:29.295Z,2.77
2019-05-28T13:20:00.439Z,2.40
2019-05-28T13:22:32.382Z,2.47
2019-05-28T13:25:03.720Z,2.60
2019-05-28T13:27:34.774Z,2.47
2019-05-28T13:30:06.702Z,2.57
2019-05-28T13:32:38.175Z,2.97
2019-05-28T13:35:10.428Z,3.23
2019-05-28T13:37:42.819Z,3.03
2019-05-28T13:40:15.466Z,3.60
2019-05-28T13:42:47.039Z,3.63
2019-05-28T13:45:19.603Z,3.63
2019-05-28T13:47:51.712Z,3.50
2019-05-28T13:50:23.386Z,3.53
2019-05-28T13:52:54.411Z,3.87
2019-05-28T13:55:25.774Z,3.10
2019-05-28T13:57:57.536Z,2.87
2019-05-28T14:00:29.564Z,2.93
2019-05-28T14:03:01.453Z,2.87
2019-05-28T14:05:32.423Z,3.00
2019-05-28T14:08:03.538Z,2.70
2019-05-28T14:10:34.575Z,2.90
2019-05-28T14:13:06.239Z,2.63
2019-05-28T14:15:37.996Z,2.97
2019-05-28T14:18:09.519Z,3.17
2019-05-28T14:20:41.739Z,3.30
2019-05-28T14:23:13.296Z,3.20
2019-05-28T14:25:45.526Z,2.90
2019-05-28T14:28:16.448Z,3.30
2019-05-28T14:30:59.265Z,3.17
2019-05-28T14:33:21.358Z,2.97
2019-05-28T14:35:52.559Z,2.70
2019-05-28T14:38:24.380Z,2.77
2019-05-28T14:40:57.307Z,2.67
2019-05-28T14:43:28.592Z,2.77
2019-05-28T14:45:59.773Z,3.00
2019-05-28T14:48:30.969Z,2.83
2019-05-28T14:51:01.863Z,2.63
2019-05-28T14:53:32.811Z,3.00
2019-05-28T14:56:03.636Z,2.87
2019-05-28T14:58:35.362Z,2.70
2019-05-28T15:01:08.141Z,2.90
2019-05-28T15:03:39.487Z,3.07
2019-05-28T15:06:10.499Z,2.80
2019-05-28T15:08:41.295Z,2.80
2019-05-28T15:11:12.791Z,2.93
2019-05-28T15:13:46.058Z,2.67
2019-05-28T15:16:17.300Z,2.70
2019-05-28T15:18:48.275Z,2.50
2019-05-28T15:21:19.733Z,3.00
2019-05-28T15:23:50.850Z,3.10
2019-05-28T15:26:22.430Z,3.00
2019-05-28T15:28:53.903Z,2.80
2019-05-28T15:31:24.897Z,2.90
2019-05-28T15:33:56.216Z,2.63
2019-05-28T15:36:27.219Z,2.60
2019-05-28T15:38:58.435Z,2.60
2019-05-28T15:41:29.587Z,2.40
2019-05-28T15:44:00.628Z,2.70
2019-05-28T15:46:32.092Z,2.70
2019-05-28T15:49:03.119Z,2.80
2019-05-28T15:51:33.990Z,3.07
2019-05-28T15:54:05.175Z,2.97
2019-05-28T15:56:36.371Z,2.80
2019-05-28T15:59:07.391Z,2.60
2019-05-28T16:01:38.521Z,2.70
2019-05-28T16:04:10.187Z,2.60
2019-05-28T16:06:41.150Z,3.10
2019-05-28T16:09:13.155Z,3.50
2019-05-28T16:11:44.771Z,3.30
2019-05-28T16:14:16.400Z,4.10
2019-05-28T16:16:48.117Z,4.97
2019-05-28T16:19:19.491Z,4.07
2019-05-28T16:21:50.554Z,4.13
2019-05-28T16:24:21.872Z,5.13
2019-05-28T16:26:52.835Z,5.20
2019-05-28T16:29:24.108Z,4.60
2019-05-28T16:31:55.228Z,5.10
2019-05-28T16:34:27.511Z,4.87
2019-05-28T16:36:59.180Z,5.83
2019-05-28T16:39:30.555Z,5.40
2019-05-28T16:42:02.695Z,4.80
2019-05-28T16:44:34.423Z,5.13
2019-05-28T16:47:17.625Z,5.23
2019-05-28T16:49:39.699Z,5.10
2019-05-28T16:52:11.647Z,3.60
2019-05-28T16:54:43.474Z,2.80
2019-05-28T16:57:14.905Z,2.50
2019-05-28T16:59:46.632Z,2.60
2019-05-28T17:02:17.899Z,2.00
2019-05-28T17:04:49.499Z,61.30
2019-05-28T17:07:20.868Z,7.23
2019-05-28T17:09:53.297Z,5.40
2019-05-28T17:12:25.415Z,2.50
2019-05-28T17:14:56.635Z,3.90
2019-05-28T17:17:27.511Z,2.23
2019-05-28T17:19:58.967Z,2.60
2019-05-28T17:22:30.315Z,2.67
2019-05-28T17:25:01.882Z,2.33
2019-05-28T17:27:33.343Z,2.40
2019-05-28T17:30:16.710Z,3.10
2019-05-28T17:32:37.659Z,3.00
2019-05-28T17:35:09.580Z,2.80
2019-05-28T17:37:40.769Z,3.60
2019-05-28T17:40:12.032Z,3.13
2019-05-28T17:42:42.827Z,3.63
2019-05-28T17:45:14.415Z,2.90
2019-05-28T17:47:46.128Z,2.97
2019-05-28T17:50:17.784Z,3.40
2019-05-28T17:52:51.277Z,3.10
2019-05-28T17:55:23.431Z,3.10
2019-05-28T17:57:54.252Z,2.70
2019-05-28T18:00:25.843Z,2.87
2019-05-28T18:02:56.955Z,2.60
2019-05-28T18:05:27.973Z,2.97
2019-05-28T18:07:59.866Z,3.40
2019-05-28T18:10:31.417Z,2.60
2019-05-28T18:13:02.696Z,2.60
2019-05-28T18:15:34.404Z,2.57
2019-05-28T18:18:05.632Z,2.80
2019-05-28T18:20:36.887Z,2.90
2019-05-28T18:23:07.949Z,2.57
2019-05-28T18:25:39.355Z,2.80
2019-05-28T18:28:10.725Z,2.40
2019-05-28T18:30:42.169Z,2.37
2019-05-28T18:33:13.570Z,2.20
2019-05-28T18:35:45.142Z,2.50
2019-05-28T18:38:17.643Z,2.27
2019-05-28T18:40:48.715Z,2.63
2019-05-28T18:43:19.783Z,2.47
2019-05-28T18:45:51.608Z,2.90
2019-05-28T18:48:23.175Z,2.43
2019-05-28T18:50:54.811Z,2.20
2019-05-28T18:53:26.567Z,2.30
2019-05-28T18:55:57.895Z,2.37
2019-05-28T18:58:35.584Z,2.30
2019-05-28T19:01:05.515Z,2.67
2019-05-28T19:03:38.915Z,2.40
2019-05-28T19:06:10.611Z,2.43
2019-05-28T19:08:42.611Z,2.60
2019-05-28T19:11:13.789Z,2.60
2019-05-28T19:13:45.048Z,2.63
2019-05-28T19:16:16.108Z,2.40
2019-05-28T19:18:47.298Z,2.83
2019-05-28T19:21:18.422Z,2.67
2019-05-28T19:23:49.835Z,2.80
2019-05-28T19:26:20.969Z,2.77
2019-05-28T19:28:52.429Z,3.27
2019-05-28T19:31:23.716Z,3.13
2019-05-28T19:33:55.239Z,3.13
2019-05-28T19:36:26.858Z,2.80
2019-05-28T19:39:00.101Z,3.20
2019-05-28T19:41:31.182Z,3.10
2019-05-28T19:44:02.061Z,2.93
2019-05-28T19:46:33.819Z,3.60
2019-05-28T19:49:04.999Z,3.10
2019-05-28T19:51:36.211Z,3.33
2019-05-28T19:54:08.169Z,3.57
2019-05-28T19:56:40.005Z,3.20
2019-05-28T19:59:11.538Z,3.30
2019-05-28T20:01:43.135Z,3.97
2019-05-28T20:04:14.827Z,3.70
2019-05-28T20:06:46.634Z,4.00
2019-05-28T20:09:18.317Z,3.40
2019-05-28T20:11:49.846Z,4.07
2019-05-28T20:14:20.904Z,3.80
2019-05-28T20:16:53.333Z,4.20
2019-05-28T20:19:24.586Z,4.70
2019-05-28T20:21:57.215Z,3.60
2019-05-28T20:24:28.971Z,4.10
2019-05-28T20:27:00.702Z,4.50
2019-05-28T20:29:31.519Z,5.00
2019-05-28T20:32:03.194Z,5.10
2019-05-28T20:34:35.074Z,4.87
2019-05-28T20:37:07.653Z,4.90
2019-05-28T20:39:38.768Z,5.03
2019-05-28T20:42:11.387Z,5.60
2019-05-28T20:44:42.544Z,5.60
2019-05-28T20:47:13.978Z,4.83
2019-05-28T20:49:45.338Z,6.13
2019-05-28T20:52:16.454Z,5.87
2019-05-28T20:54:48.807Z,5.77
2019-05-28T20:57:20.271Z,5.03
2019-05-28T20:59:51.751Z,5.17
2019-05-28T21:02:22.914Z,5.93
2019-05-28T21:04:54.570Z,6.53
2019-05-28T21:07:25.791Z,6.70
2019-05-28T21:09:56.942Z,6.47
2019-05-28T21:12:42.691Z,6.00
2019-05-28T21:15:02.042Z,6.40
2019-05-28T21:17:35.350Z,5.53
2019-05-28T21:20:07.222Z,5.83
2019-05-28T21:22:38.686Z,6.20
2019-05-28T21:25:10.306Z,5.43
2019-05-28T21:27:41.902Z,6.30
2019-05-28T21:30:13.810Z,7.10
2019-05-28T21:32:44.758Z,5.97
2019-05-28T21:35:16.006Z,6.70
2019-05-28T21:37:47.168Z,7.70
2019-05-28T21:40:19.286Z,6.93
2019-05-28T21:43:01.321Z,7.37
2019-05-28T21:45:25.754Z,6.77
2019-05-28T21:47:58.532Z,5.93
2019-05-28T21:50:30.655Z,9.37
2019-05-28T21:53:03.232Z,8.33
2019-05-28T21:55:34.726Z,7.67
2019-05-28T21:58:06.306Z,9.47
2019-05-28T22:00:44.363Z,7.83
2019-05-28T22:03:17.630Z,10.13
2019-05-28T22:05:48.963Z,10.00
2019-05-28T22:08:21.282Z,9.47
2019-05-28T22:10:52.295Z,10.57
2019-05-28T22:13:23.478Z,11.30
2019-05-28T22:15:55.964Z,10.50
2019-05-28T22:18:27.354Z,11.17
2019-05-28T22:21:00.224Z,13.20
2019-05-28T22:23:31.338Z,10.83
2019-05-28T22:26:02.639Z,11.53
2019-05-28T22:28:33.483Z,9.97
2019-05-28T22:31:04.913Z,12.23
2019-05-28T22:33:36.023Z,8.90
2019-05-28T22:36:07.539Z,9.90
2019-05-28T22:38:39.638Z,9.57
2019-05-28T22:41:10.570Z,10.97
2019-05-28T22:43:41.391Z,12.20
2019-05-28T22:46:12.194Z,10.60
2019-05-28T22:48:42.968Z,13.50
2019-05-28T22:51:14.022Z,12.67
2019-05-28T22:53:45.165Z,14.57
2019-05-28T22:56:16.879Z,14.77
2019-05-28T22:58:47.996Z,14.77
2019-05-28T23:01:19.263Z,13.63
2019-05-28T23:03:50.314Z,13.87
2019-05-28T23:06:21.598Z,14.53
2019-05-28T23:08:52.742Z,14.67
2019-05-28T23:11:23.745Z,13.93
2019-05-28T23:13:54.751Z,12.83
2019-05-28T23:16:25.748Z,13.23
2019-05-28T23:18:56.527Z,13.47
2019-05-28T23:21:27.479Z,12.23
2019-05-28T23:23:58.498Z,15.30
2019-05-28T23:26:30.250Z,14.77
2019-05-28T23:29:01.770Z,14.30
2019-05-28T23:31:33.042Z,17.07
2019-05-28T23:34:04.399Z,15.33
2019-05-28T23:36:35.839Z,16.30
2019-05-28T23:39:09.070Z,15.83
2019-05-28T23:41:41.210Z,17.13
2019-05-28T23:44:13.868Z,17.23
2019-05-28T23:46:45.398Z,15.63
2019-05-28T23:49:17.377Z,18.57
2019-05-28T23:51:48.511Z,19.50
2019-05-28T23:54:19.759Z,19.13
2019-05-28T23:56:52.678Z,19.97
2019-05-28T23:59:23.907Z,18.57
